Time;durP1;ratioP1;P1;durP2;ratioP2;P2;SDS_P1;SDS_P2;PMS_P1;PMS_P2;Temp;Humidity;BMP_temperature;BMP_pressure;BME280_temperature;BME280_humidity;BME280_pressure;Samples;Min_cycle;Max_cycle;Signal;HPM_P1;HPM_P2
2022/04/12 00:02:01;;;;;;;6.80;4.50;;;;;;;-150.27;100.00;61272.81;5241859;28;20025;-70
2022/04/12 00:04:32;;;;;;;6.33;4.03;;;;;;;-150.27;100.00;61272.81;5234533;28;20116;-69
2022/04/12 00:07:03;;;;;;;10.77;4.30;;;;;;;-150.27;100.00;61272.81;5240857;28;20495;-69
2022/04/12 00:09:35;;;;;;;6.87;3.77;;;;;;;-150.27;100.00;61272.81;5249603;28;20468;-69
2022/04/12 00:12:08;;;;;;;6.20;3.90;;;;;;;-150.27;100.00;61272.81;5250305;28;20464;-69
2022/04/12 00:14:39;;;;;;;9.60;4.47;;;;;;;-150.27;100.00;61272.81;5233465;28;20077;-69
2022/04/12 00:20:05;;;;;;;5.72;3.60;;;;;;;-150.27;100.00;61272.81;5193871;28;20060;-69
2022/04/12 00:22:39;;;;;;;9.63;3.93;;;;;;;-150.27;100.00;61272.81;5232737;28;20076;-69
2022/04/12 00:25:11;;;;;;;6.28;3.92;;;;;;;-150.27;100.00;61272.81;5232505;28;20030;-70
2022/04/12 00:27:42;;;;;;;7.23;4.00;;;;;;;-150.27;100.00;61272.81;5232784;28;20080;-69
2022/04/12 00:30:13;;;;;;;6.30;3.43;;;;;;;-150.27;100.00;61272.81;5231337;28;20027;-69
2022/04/12 00:32:46;;;;;;;8.47;3.90;;;;;;;-150.27;100.00;61272.81;5232598;28;20021;-69
2022/04/12 00:35:21;;;;;;;10.33;4.20;;;;;;;-150.27;100.00;61272.81;5232662;28;20026;-69
2022/04/12 00:37:53;;;;;;;9.23;3.53;;;;;;;-150.27;100.00;61272.81;5213881;28;20025;-69
2022/04/12 00:40:26;;;;;;;6.57;4.20;;;;;;;-150.27;100.00;61272.81;5214569;28;20040;-69
2022/04/12 00:43:02;;;;;;;9.40;3.83;;;;;;;-150.27;100.00;61272.81;5231142;28;20472;-69
2022/04/12 00:45:34;;;;;;;5.93;3.73;;;;;;;-150.27;100.00;61272.81;5231836;28;20029;-69
2022/04/12 00:48:05;;;;;;;10.80;4.43;;;;;;;-150.27;100.00;61272.81;5232524;28;20048;-69
2022/04/12 00:50:37;;;;;;;9.60;4.27;;;;;;;-150.27;100.00;61272.81;5232127;28;20138;-69
2022/04/12 00:53:09;;;;;;;11.80;5.07;;;;;;;-150.27;100.00;61272.81;5232905;28;20036;-69
2022/04/12 00:55:41;;;;;;;6.57;3.57;;;;;;;-150.27;100.00;61272.81;5231537;28;20585;-69
2022/04/12 00:58:12;;;;;;;6.93;4.17;;;;;;;-150.27;100.00;61272.81;5231623;28;20044;-69
2022/04/12 01:00:44;;;;;;;8.27;3.17;;;;;;;-150.27;100.00;61272.81;5231152;28;20106;-69
2022/04/12 01:03:16;;;;;;;8.40;3.70;;;;;;;-150.27;100.00;61272.81;5232260;28;20523;-69
2022/04/12 01:05:48;;;;;;;6.60;3.60;;;;;;;-150.27;100.00;61272.81;5231328;28;20401;-69
2022/04/12 01:08:19;;;;;;;7.67;3.50;;;;;;;-150.27;100.00;61272.81;5214537;28;20037;-69
2022/04/12 01:13:26;;;;;;;8.53;3.60;;;;;;;-150.27;100.00;61272.81;5221027;28;20057;-69
2022/04/12 01:15:57;;;;;;;7.00;3.50;;;;;;;-150.27;100.00;61272.81;5205663;28;20680;-70
2022/04/12 01:18:28;;;;;;;6.77;3.50;;;;;;;-150.27;100.00;61272.81;5204105;28;20448;-69
2022/04/12 01:21:00;;;;;;;9.20;3.83;;;;;;;-150.27;100.00;61272.81;5196423;28;20592;-69
2022/04/12 01:23:42;;;;;;;9.77;4.17;;;;;;;-150.27;100.00;61272.81;5208188;28;20034;-69
2022/04/12 01:26:13;;;;;;;8.53;4.20;;;;;;;-150.27;100.00;61272.81;5206343;28;20807;-69
2022/04/12 01:28:44;;;;;;;6.93;3.80;;;;;;;-150.27;100.00;61272.81;5206846;28;20026;-69
2022/04/12 01:31:16;;;;;;;6.97;3.73;;;;;;;-150.27;100.00;61272.81;5209737;28;20049;-69
2022/04/12 01:33:47;;;;;;;8.03;4.27;;;;;;;-150.27;100.00;61272.81;5206670;28;20037;-69
2022/04/12 01:36:19;;;;;;;8.93;3.90;;;;;;;-150.27;100.00;61272.81;5198338;28;20034;-69
2022/04/12 01:38:50;;;;;;;10.83;4.23;;;;;;;-150.27;100.00;61272.81;5203853;28;20028;-69
2022/04/12 01:41:21;;;;;;;6.70;4.13;;;;;;;-150.27;100.00;61272.81;5210931;28;20377;-69
2022/04/12 01:43:53;;;;;;;6.97;4.23;;;;;;;-150.27;100.00;61272.81;5201728;28;20041;-69
2022/04/12 01:46:24;;;;;;;8.00;4.13;;;;;;;-150.27;100.00;61272.81;5202963;28;20119;-69
2022/04/12 01:48:55;;;;;;;7.40;3.63;;;;;;;-150.27;100.00;61272.81;5209446;28;20045;-69
2022/04/12 01:51:27;;;;;;;6.63;3.50;;;;;;;-150.27;100.00;61272.81;5199104;28;20113;-69
2022/04/12 01:53:59;;;;;;;8.57;4.30;;;;;;;-150.27;100.00;61272.81;5205176;28;20033;-69
2022/04/12 01:56:31;;;;;;;6.53;3.77;;;;;;;-150.27;100.00;61272.81;5200634;28;20042;-69
2022/04/12 01:59:04;;;;;;;7.07;3.80;;;;;;;-150.27;100.00;61272.81;5194191;28;20021;-69
2022/04/12 02:01:35;;;;;;;8.20;4.17;;;;;;;-150.27;100.00;61272.81;5193190;28;20023;-69
2022/04/12 02:04:06;;;;;;;8.93;3.37;;;;;;;-150.27;100.00;61272.81;5209467;28;20033;-69
2022/04/12 02:06:37;;;;;;;11.43;3.77;;;;;;;-150.27;100.00;61272.81;5203363;28;20033;-69
2022/04/12 02:09:09;;;;;;;6.77;3.80;;;;;;;-150.27;100.00;61272.81;5201718;28;20117;-69
2022/04/12 02:11:40;;;;;;;9.60;4.57;;;;;;;-150.27;100.00;61272.81;5208119;28;20049;-69
2022/04/12 02:14:11;;;;;;;7.47;3.93;;;;;;;-150.27;100.00;61272.81;5205441;28;20034;-69
2022/04/12 02:16:42;;;;;;;10.27;3.47;;;;;;;-150.27;100.00;61272.81;5196909;28;20037;-69
2022/04/12 02:19:14;;;;;;;10.27;4.27;;;;;;;-150.27;100.00;61272.81;5206368;28;20774;-69
2022/04/12 02:21:45;;;;;;;5.97;3.90;;;;;;;-150.27;100.00;61272.81;5198692;28;20469;-69
2022/04/12 02:24:16;;;;;;;10.13;4.93;;;;;;;-150.27;100.00;61272.81;5204050;28;20018;-69
2022/04/12 02:26:48;;;;;;;8.37;3.83;;;;;;;-150.27;100.00;61272.81;5210329;28;20499;-69
2022/04/12 02:29:19;;;;;;;8.03;3.53;;;;;;;-150.27;100.00;61272.81;5194975;28;20088;-69
2022/04/12 02:31:51;;;;;;;8.67;3.93;;;;;;;-150.27;100.00;61272.81;5208043;28;20026;-69
2022/04/12 02:34:22;;;;;;;7.43;3.70;;;;;;;-150.27;100.00;61272.81;5191603;28;20061;-68
2022/04/12 02:36:53;;;;;;;9.77;3.70;;;;;;;-150.27;100.00;61272.81;5197395;28;20030;-69
2022/04/12 02:39:25;;;;;;;9.23;4.10;;;;;;;-150.27;100.00;61272.81;5208492;28;20072;-69
2022/04/12 02:41:56;;;;;;;11.27;4.23;;;;;;;-150.27;100.00;61272.81;5209550;28;20061;-69
2022/04/12 02:44:27;;;;;;;9.57;3.97;;;;;;;-150.27;100.00;61272.81;5199564;28;20060;-69
2022/04/12 02:46:59;;;;;;;10.87;4.07;;;;;;;-150.27;100.00;61272.81;5207150;28;20038;-69
2022/04/12 02:49:30;;;;;;;8.27;4.00;;;;;;;-150.27;100.00;61272.81;5210010;28;20476;-69
2022/04/12 02:52:01;;;;;;;7.03;3.73;;;;;;;-150.27;100.00;61272.81;5212174;28;20104;-69
2022/04/12 02:54:33;;;;;;;7.47;3.67;;;;;;;-150.27;100.00;61272.81;5204577;28;20040;-69
2022/04/12 02:57:04;;;;;;;7.20;3.10;;;;;;;-150.27;100.00;61272.81;5204100;28;20033;-69
2022/04/12 02:59:35;;;;;;;6.17;3.60;;;;;;;-150.27;100.00;61272.81;5206167;28;20060;-69
2022/04/12 03:02:07;;;;;;;10.57;3.80;;;;;;;-150.27;100.00;61272.81;5207589;28;20064;-69
2022/04/12 03:04:40;;;;;;;5.37;3.40;;;;;;;-150.27;100.00;61272.81;5192074;28;20041;-70
2022/04/12 03:07:11;;;;;;;7.10;3.87;;;;;;;-150.27;100.00;61272.81;5206576;28;20030;-70
2022/04/12 03:09:43;;;;;;;8.27;4.53;;;;;;;-150.27;100.00;61272.81;5209724;28;20040;-70
2022/04/12 03:12:14;;;;;;;9.83;4.27;;;;;;;-150.27;100.00;61272.81;5208894;28;20049;-70
2022/04/12 03:14:45;;;;;;;7.60;3.90;;;;;;;-150.27;100.00;61272.81;5198903;28;20089;-70
2022/04/12 03:17:17;;;;;;;8.37;4.53;;;;;;;-150.27;100.00;61272.81;5204950;28;20022;-70
2022/04/12 03:19:48;;;;;;;7.47;4.40;;;;;;;-150.27;100.00;61272.81;5206215;28;20061;-70
2022/04/12 03:22:20;;;;;;;9.07;4.10;;;;;;;-150.27;100.00;61272.81;5207750;28;20065;-71
2022/04/12 03:24:51;;;;;;;9.57;4.53;;;;;;;-150.27;100.00;61272.81;5204001;28;20056;-71
2022/04/12 03:27:22;;;;;;;8.20;4.70;;;;;;;-150.27;100.00;61272.81;5208725;28;20542;-71
2022/04/12 03:29:54;;;;;;;7.80;4.17;;;;;;;-150.27;100.00;61272.81;5194167;28;20468;-70
2022/04/12 03:32:25;;;;;;;8.27;4.63;;;;;;;-150.27;100.00;61272.81;5197517;28;20031;-71
2022/04/12 03:34:56;;;;;;;9.53;4.30;;;;;;;-150.27;100.00;61272.81;5204854;28;20049;-70
2022/04/12 03:37:27;;;;;;;7.03;3.87;;;;;;;-150.27;100.00;61272.81;5205101;28;20104;-70
2022/04/12 03:39:59;;;;;;;9.30;3.93;;;;;;;-150.27;100.00;61272.81;5209380;28;20061;-70
2022/04/12 03:42:30;;;;;;;6.37;4.00;;;;;;;-150.27;100.00;61272.81;5206884;28;20026;-71
2022/04/12 03:45:02;;;;;;;10.20;4.83;;;;;;;-150.27;100.00;61272.81;5199575;28;20041;-70
2022/04/12 03:47:33;;;;;;;8.70;4.20;;;;;;;-150.27;100.00;61272.81;5208578;28;20040;-70
2022/04/12 03:50:05;;;;;;;10.30;4.67;;;;;;;-150.27;100.00;61272.81;5200344;28;20492;-70
2022/04/12 03:52:36;;;;;;;9.00;4.47;;;;;;;-150.27;100.00;61272.81;5207322;28;20447;-70
2022/04/12 03:55:10;;;;;;;8.43;4.37;;;;;;;-150.27;100.00;61272.81;5201820;28;20484;-70
2022/04/12 03:57:42;;;;;;;6.30;4.18;;;;;;;-150.27;100.00;61272.81;5203999;28;20026;-70
2022/04/12 04:00:14;;;;;;;8.60;4.97;;;;;;;-150.27;100.00;61272.81;5204717;28;20078;-71
2022/04/12 04:02:45;;;;;;;9.87;4.10;;;;;;;-150.27;100.00;61272.81;5195182;28;20037;-70
2022/04/12 04:05:17;;;;;;;9.33;4.40;;;;;;;-150.27;100.00;61272.81;5212485;28;20391;-71
2022/04/12 04:07:48;;;;;;;11.53;4.70;;;;;;;-150.27;100.00;61272.81;5207781;28;20036;-70
2022/04/12 04:10:20;;;;;;;8.40;4.17;;;;;;;-150.27;100.00;61272.81;5212611;28;20022;-71
2022/04/12 04:12:53;;;;;;;9.33;4.60;;;;;;;-150.27;100.00;61272.81;5210126;28;20045;-71
2022/04/12 04:15:24;;;;;;;8.40;4.47;;;;;;;-150.27;100.00;61272.81;5207284;28;20706;-70
2022/04/12 04:17:55;;;;;;;7.77;4.17;;;;;;;-150.27;100.00;61272.81;5211230;28;20057;-70
2022/04/12 04:20:27;;;;;;;7.33;4.57;;;;;;;-150.27;100.00;61272.81;5212280;28;20291;-70
2022/04/12 04:22:58;;;;;;;8.17;3.90;;;;;;;-150.27;100.00;61272.81;5207834;28;20164;-70
2022/04/12 04:25:30;;;;;;;6.97;4.17;;;;;;;-150.27;100.00;61272.81;5206567;28;20590;-71
2022/04/12 04:28:02;;;;;;;9.00;4.57;;;;;;;-150.27;100.00;61272.81;5197352;28;20030;-70
2022/04/12 04:30:35;;;;;;;7.57;4.30;;;;;;;-150.27;100.00;61272.81;5206730;28;20033;-71
2022/04/12 04:33:07;;;;;;;8.97;4.30;;;;;;;-150.27;100.00;61272.81;5200180;28;20068;-70
2022/04/12 04:35:38;;;;;;;8.47;4.60;;;;;;;-150.27;100.00;61272.81;5207551;28;20068;-70
2022/04/12 04:38:09;;;;;;;10.67;4.67;;;;;;;-150.27;100.00;61272.81;5210988;28;20037;-71
2022/04/12 04:40:41;;;;;;;12.97;6.10;;;;;;;-150.27;100.00;61272.81;5212036;28;20022;-70
2022/04/12 04:43:12;;;;;;;12.13;5.50;;;;;;;-150.27;100.00;61272.81;5211409;28;20105;-70
2022/04/12 04:45:44;;;;;;;8.07;4.90;;;;;;;-150.27;100.00;61272.81;5199527;28;20116;-70
2022/04/12 04:48:15;;;;;;;9.33;4.87;;;;;;;-150.27;100.00;61272.81;5210427;28;20112;-71
2022/04/12 04:50:47;;;;;;;11.27;5.33;;;;;;;-150.27;100.00;61272.81;5211877;28;20022;-70
2022/04/12 04:53:18;;;;;;;9.03;5.03;;;;;;;-150.27;100.00;61272.81;5210629;28;20066;-71
2022/04/12 04:55:49;;;;;;;9.23;4.87;;;;;;;-150.27;100.00;61272.81;5210455;28;20034;-70
2022/04/12 04:58:20;;;;;;;17.03;5.97;;;;;;;-150.27;100.00;61272.81;5210246;28;20026;-70
2022/04/12 05:00:52;;;;;;;10.80;5.43;;;;;;;-150.27;100.00;61272.81;5211939;28;20033;-70
2022/04/12 05:03:23;;;;;;;8.03;5.20;;;;;;;-150.27;100.00;61272.81;5209490;28;20029;-70
2022/04/12 05:05:54;;;;;;;11.17;4.80;;;;;;;-150.27;100.00;61272.81;5210909;28;20040;-70
2022/04/12 05:08:25;;;;;;;8.97;4.77;;;;;;;-150.27;100.00;61272.81;5210058;28;20557;-70
2022/04/12 05:10:57;;;;;;;9.83;4.97;;;;;;;-150.27;100.00;61272.81;5211267;28;20033;-70
2022/04/12 05:13:28;;;;;;;12.07;5.33;;;;;;;-150.27;100.00;61272.81;5208323;28;20046;-70
2022/04/12 05:15:59;;;;;;;6.93;4.93;;;;;;;-150.27;100.00;61272.81;5207897;28;20030;-70
2022/04/12 05:18:30;;;;;;;9.87;5.07;;;;;;;-150.27;100.00;61272.81;5209859;28;20034;-70
2022/04/12 05:21:02;;;;;;;10.43;6.27;;;;;;;-150.27;100.00;61272.81;5208339;28;20112;-70
2022/04/12 05:23:33;;;;;;;9.50;5.77;;;;;;;-150.27;100.00;61272.81;5202798;28;20026;-70
2022/04/12 05:26:04;;;;;;;14.47;4.93;;;;;;;-150.27;100.00;61272.81;5197211;28;20042;-71
2022/04/12 05:28:36;;;;;;;12.03;6.07;;;;;;;-150.27;100.00;61272.81;5201915;28;20043;-71
2022/04/12 05:31:07;;;;;;;7.57;4.83;;;;;;;-150.27;100.00;61272.81;5210215;28;20034;-69
2022/04/12 05:33:38;;;;;;;9.67;5.30;;;;;;;-150.27;100.00;61272.81;5198651;28;20026;-69
2022/04/12 05:36:10;;;;;;;10.03;5.40;;;;;;;-150.27;100.00;61272.81;5202760;28;20034;-69
2022/04/12 05:38:41;;;;;;;10.17;5.00;;;;;;;-150.27;100.00;61272.81;5195550;28;20080;-69
2022/04/12 05:41:12;;;;;;;14.67;6.13;;;;;;;-150.27;100.00;61272.81;5193322;28;20046;-69
2022/04/12 05:43:43;;;;;;;9.67;5.43;;;;;;;-150.27;100.00;61272.81;5199015;28;20034;-72
2022/04/12 05:46:15;;;;;;;9.67;5.60;;;;;;;-150.27;100.00;61272.81;5202372;28;20408;-73
2022/04/12 05:48:46;;;;;;;14.93;5.97;;;;;;;-150.27;100.00;61272.81;5204049;28;20695;-73
2022/04/12 05:51:17;;;;;;;10.80;5.43;;;;;;;-150.27;100.00;61272.81;5204217;28;20061;-72
2022/04/12 05:53:48;;;;;;;8.80;5.30;;;;;;;-150.27;100.00;61272.81;5207217;28;20034;-72
2022/04/12 05:56:20;;;;;;;11.37;5.87;;;;;;;-150.27;100.00;61272.81;5208849;28;20048;-73
2022/04/12 05:58:51;;;;;;;9.33;5.53;;;;;;;-150.27;100.00;61272.81;5208254;28;20036;-73
2022/04/12 06:01:22;;;;;;;12.40;6.30;;;;;;;-150.27;100.00;61272.81;5208357;28;20361;-73
2022/04/12 06:03:53;;;;;;;12.20;5.77;;;;;;;-150.27;100.00;61272.81;5206715;28;20026;-72
2022/04/12 06:06:25;;;;;;;11.10;5.67;;;;;;;-150.27;100.00;61272.81;5206375;28;20072;-70
2022/04/12 06:08:56;;;;;;;11.33;7.00;;;;;;;-150.27;100.00;61272.81;5208729;28;20137;-69
2022/04/12 06:11:27;;;;;;;11.07;5.43;;;;;;;-150.27;100.00;61272.81;5207984;28;20061;-72
2022/04/12 06:13:59;;;;;;;10.13;5.83;;;;;;;-150.27;100.00;61272.81;5208690;28;20061;-72
2022/04/12 06:16:30;;;;;;;8.80;5.80;;;;;;;-150.27;100.00;61272.81;5207391;28;20036;-70
2022/04/12 06:19:01;;;;;;;11.13;5.50;;;;;;;-150.27;100.00;61272.81;5209040;28;20576;-70
2022/04/12 06:21:33;;;;;;;7.03;4.93;;;;;;;-150.27;100.00;61272.81;5208599;28;20032;-70
2022/04/12 06:24:04;;;;;;;7.67;5.30;;;;;;;-150.27;100.00;61272.81;5208283;28;20691;-71
2022/04/12 06:26:35;;;;;;;11.90;5.47;;;;;;;-150.27;100.00;61272.81;5208583;28;20026;-71
2022/04/12 06:29:07;;;;;;;13.17;5.40;;;;;;;-150.27;100.00;61272.81;5207695;28;20414;-70
2022/04/12 06:31:38;;;;;;;9.93;5.67;;;;;;;-150.27;100.00;61272.81;5208684;28;20382;-69
2022/04/12 06:34:09;;;;;;;7.57;5.70;;;;;;;-150.27;100.00;61272.81;5209650;28;20469;-70
2022/04/12 06:36:40;;;;;;;10.03;5.77;;;;;;;-150.27;100.00;61272.81;5209869;28;20030;-71
2022/04/12 06:39:12;;;;;;;13.20;6.27;;;;;;;-150.27;100.00;61272.81;5210063;28;20055;-71
2022/04/12 06:41:43;;;;;;;11.77;5.53;;;;;;;-150.27;100.00;61272.81;5208838;28;20041;-69
2022/04/12 06:44:14;;;;;;;9.23;5.47;;;;;;;-150.27;100.00;61272.81;5209211;28;20072;-69
2022/04/12 06:46:45;;;;;;;11.33;5.27;;;;;;;-150.27;100.00;61272.81;5208993;28;20029;-70
2022/04/12 06:49:17;;;;;;;15.37;6.40;;;;;;;-150.27;100.00;61272.81;5209641;28;20064;-70
2022/04/12 06:51:48;;;;;;;7.80;5.13;;;;;;;-150.27;100.00;61272.81;5208994;28;20091;-70
2022/04/12 06:54:19;;;;;;;13.37;5.27;;;;;;;-150.27;100.00;61272.81;5208263;28;20045;-70
2022/04/12 06:56:50;;;;;;;7.90;5.90;;;;;;;-150.27;100.00;61272.81;5208002;28;20026;-70
2022/04/12 06:59:22;;;;;;;9.47;5.33;;;;;;;-150.27;100.00;61272.81;5209632;28;20026;-70
2022/04/12 07:01:54;;;;;;;11.87;6.00;;;;;;;-150.27;100.00;61272.81;5209200;28;20033;-70
2022/04/12 07:04:25;;;;;;;10.97;5.27;;;;;;;-150.27;100.00;61272.81;5209169;28;20030;-71
2022/04/12 07:06:57;;;;;;;9.70;5.90;;;;;;;-150.27;100.00;61272.81;5209527;28;20030;-70
2022/04/12 07:09:29;;;;;;;14.83;5.50;;;;;;;-150.27;100.00;61272.81;5208816;28;20045;-70
2022/04/12 07:12:02;;;;;;;8.00;5.17;;;;;;;-150.27;100.00;61272.81;5210634;28;20132;-70
2022/04/12 07:14:33;;;;;;;9.10;4.90;;;;;;;-150.27;100.00;61272.81;5213047;28;20038;-71
2022/04/12 07:17:05;;;;;;;10.03;5.23;;;;;;;-150.27;100.00;61272.81;5208998;28;20069;-70
2022/04/12 07:19:36;;;;;;;12.50;5.50;;;;;;;-150.27;100.00;61272.81;5208901;28;20030;-70
2022/04/12 07:22:09;;;;;;;6.80;5.27;;;;;;;-150.27;100.00;61272.81;5208771;28;20021;-70
2022/04/12 07:24:40;;;;;;;9.47;5.50;;;;;;;-150.27;100.00;61272.81;5209113;28;20084;-71
2022/04/12 07:27:11;;;;;;;9.40;4.23;;;;;;;-150.27;100.00;61272.81;5206789;28;20034;-71
2022/04/12 07:29:43;;;;;;;6.27;4.47;;;;;;;-150.27;100.00;61272.81;5214040;28;20125;-70
2022/04/12 07:32:14;;;;;;;12.10;4.50;;;;;;;-150.27;100.00;61272.81;5220053;28;20084;-70
2022/04/12 07:34:45;;;;;;;9.73;4.70;;;;;;;-150.27;100.00;61272.81;5214810;28;20104;-71
2022/04/12 07:37:16;;;;;;;12.77;5.83;;;;;;;-150.27;100.00;61272.81;5215319;28;20014;-70
2022/04/12 07:39:48;;;;;;;9.37;4.97;;;;;;;-150.27;100.00;61272.81;5214673;28;20108;-70
2022/04/12 07:42:20;;;;;;;7.90;4.43;;;;;;;-150.27;100.00;61272.81;5214403;28;20353;-69
2022/04/12 07:44:51;;;;;;;12.57;5.10;;;;;;;-150.27;100.00;61272.81;5214319;28;20037;-70
2022/04/12 07:47:23;;;;;;;8.57;4.13;;;;;;;-150.27;100.00;61272.81;5215122;28;20488;-71
2022/04/12 07:49:54;;;;;;;10.50;5.07;;;;;;;-150.27;100.00;61272.81;5215636;28;20021;-70
2022/04/12 07:52:26;;;;;;;7.90;3.90;;;;;;;-150.27;100.00;61272.81;5214567;28;20038;-71
2022/04/12 07:54:57;;;;;;;6.23;3.67;;;;;;;-150.27;100.00;61272.81;5215185;28;20119;-71
2022/04/12 07:57:29;;;;;;;6.67;4.00;;;;;;;-150.27;100.00;61272.81;5214040;28;20472;-71
2022/04/12 08:00:00;;;;;;;13.43;4.53;;;;;;;-150.27;100.00;61272.81;5215205;28;20028;-71
2022/04/12 08:02:31;;;;;;;5.73;3.63;;;;;;;-150.27;100.00;61272.81;5214586;28;20041;-73
2022/04/12 08:05:03;;;;;;;5.67;3.80;;;;;;;-150.27;100.00;61272.81;5214723;28;20038;-70
2022/04/12 08:07:34;;;;;;;7.27;4.03;;;;;;;-150.27;100.00;61272.81;5215308;28;20057;-69
2022/04/12 08:10:06;;;;;;;5.60;3.87;;;;;;;-150.27;100.00;61272.81;5215020;28;20034;-70
2022/04/12 08:12:37;;;;;;;7.70;3.77;;;;;;;-150.27;100.00;61272.81;5212567;28;20042;-70
2022/04/12 08:15:10;;;;;;;10.97;3.53;;;;;;;-150.27;100.00;61272.81;5215213;28;20029;-69
2022/04/12 08:17:41;;;;;;;11.67;3.30;;;;;;;-150.27;100.00;61272.81;5213365;28;20006;-68
2022/04/12 08:20:13;;;;;;;6.70;3.60;;;;;;;-150.27;100.00;61272.81;5214844;28;20216;-70
2022/04/12 08:22:45;;;;;;;11.47;4.07;;;;;;;-150.27;100.00;61272.81;5214342;28;20109;-70
2022/04/12 08:25:16;;;;;;;9.30;3.77;;;;;;;-150.27;100.00;61272.81;5210972;28;20042;-72
2022/04/12 08:27:48;;;;;;;7.57;3.80;;;;;;;-150.27;100.00;61272.81;5213090;28;20072;-73
2022/04/12 08:30:19;;;;;;;9.47;3.57;;;;;;;-150.27;100.00;61272.81;5215023;28;20079;-73
2022/04/12 08:32:51;;;;;;;5.00;3.03;;;;;;;-150.27;100.00;61272.81;5214179;28;20025;-73
2022/04/12 08:35:22;;;;;;;6.50;3.17;;;;;;;-150.27;100.00;61272.81;5214043;28;20255;-73
2022/04/12 08:37:54;;;;;;;5.90;3.10;;;;;;;-150.27;100.00;61272.81;5213051;28;20481;-73
2022/04/12 08:40:26;;;;;;;6.43;3.20;;;;;;;-150.27;100.00;61272.81;5210422;28;20412;-72
2022/04/12 08:42:58;;;;;;;9.30;2.60;;;;;;;-150.27;100.00;61272.81;5210715;28;20030;-67
2022/04/12 08:45:30;;;;;;;8.13;3.85;;;;;;;-150.27;100.00;61272.81;5210239;28;20124;-68
2022/04/12 08:48:02;;;;;;;6.10;2.35;;;;;;;-150.27;100.00;61272.81;5210415;28;20112;-69
2022/04/12 08:50:34;;;;;;;5.72;2.13;;;;;;;-150.27;100.00;61272.81;5208666;28;20217;-71
2022/04/12 08:53:06;;;;;;;4.75;2.58;;;;;;;-150.27;100.00;61272.81;5211429;28;20121;-69
2022/04/12 08:55:39;;;;;;;6.60;2.38;;;;;;;-150.27;100.00;61272.81;5210838;28;20032;-68
2022/04/12 08:58:10;;;;;;;6.20;2.50;;;;;;;-150.27;100.00;61272.81;5210784;28;20067;-68
2022/04/12 09:00:42;;;;;;;4.78;2.15;;;;;;;-150.27;100.00;61272.81;5208632;28;20434;-68
2022/04/12 09:03:14;;;;;;;8.90;2.75;;;;;;;-150.27;100.00;61272.81;5208849;28;20022;-68
2022/04/12 09:05:45;;;;;;;7.28;2.47;;;;;;;-150.27;100.00;61272.81;5210311;28;20041;-68
2022/04/12 09:08:28;;;;;;;8.55;2.03;;;;;;;-150.27;100.00;61272.81;5210024;28;20029;-69
2022/04/12 09:11:02;;;;;;;4.70;1.90;;;;;;;-150.27;100.00;61272.81;5209647;28;20026;-69
2022/04/12 09:13:35;;;;;;;5.05;2.72;;;;;;;-150.27;100.00;61272.81;5207027;28;20133;-69
2022/04/12 09:16:08;;;;;;;5.05;2.40;;;;;;;-150.27;100.00;61272.81;5210157;28;20041;-70
2022/04/12 09:18:42;;;;;;;5.15;2.40;;;;;;;-150.27;100.00;61272.81;5209282;28;20041;-70
2022/04/12 09:21:16;;;;;;;8.02;2.30;;;;;;;-150.27;100.00;61272.81;5210724;28;20030;-69
2022/04/12 09:23:55;;;;;;;7.50;2.92;;;;;;;-150.27;100.00;61272.81;5205458;28;20452;-69
2022/04/12 09:26:29;;;;;;;4.15;2.42;;;;;;;-150.27;100.00;61272.81;5208541;28;20044;-70
2022/04/12 09:29:00;;;;;;;6.50;2.63;;;;;;;-150.27;100.00;61272.81;5209473;28;20102;-71
2022/04/12 09:31:33;;;;;;;6.15;2.15;;;;;;;-150.27;100.00;61272.81;5209325;28;20461;-70
2022/04/12 09:34:05;;;;;;;4.32;2.00;;;;;;;-150.27;100.00;61272.81;5207810;28;20380;-71
2022/04/12 09:36:36;;;;;;;8.45;2.30;;;;;;;-150.27;100.00;61272.81;5210403;28;20037;-71
2022/04/12 09:39:08;;;;;;;6.63;2.28;;;;;;;-150.27;100.00;61272.81;5210516;28;20030;-69
2022/04/12 09:41:39;;;;;;;8.13;3.85;;;;;;;-150.27;100.00;61272.81;5207876;28;20049;-70
2022/04/12 09:44:16;;;;;;;9.68;3.28;;;;;;;-150.27;100.00;61272.81;5210456;28;20040;-70
2022/04/12 09:46:49;;;;;;;4.00;1.90;;;;;;;-150.27;100.00;61272.81;5209663;28;20026;-69
2022/04/12 09:49:20;;;;;;;5.47;2.55;;;;;;;-150.27;100.00;61272.81;5210277;28;20022;-70
2022/04/12 09:51:51;;;;;;;4.85;2.50;;;;;;;-150.27;100.00;61272.81;5209794;28;20026;-70
2022/04/12 09:54:26;;;;;;;7.03;2.38;;;;;;;-150.27;100.00;61272.81;5209475;28;20093;-71
2022/04/12 09:56:58;;;;;;;6.25;2.47;;;;;;;-150.27;100.00;61272.81;5209170;28;20507;-71
2022/04/12 09:59:32;;;;;;;6.60;1.98;;;;;;;-150.27;100.00;61272.81;5209318;28;20061;-71
2022/04/12 10:02:04;;;;;;;5.93;2.67;;;;;;;-150.27;100.00;61272.81;5208262;28;20029;-70
2022/04/12 10:04:36;;;;;;;5.10;3.03;;;;;;;-150.27;100.00;61272.81;5207410;28;20476;-71
2022/04/12 10:07:10;;;;;;;5.60;1.95;;;;;;;-150.27;100.00;61272.81;5210014;28;20049;-71
2022/04/12 10:09:43;;;;;;;8.43;2.38;;;;;;;-150.27;100.00;61272.81;5207753;28;20057;-70
2022/04/12 10:12:15;;;;;;;9.43;2.50;;;;;;;-150.27;100.00;61272.81;5208166;28;20045;-70
2022/04/12 10:14:46;;;;;;;4.30;2.60;;;;;;;-150.27;100.00;61272.81;5207770;28;20037;-69
2022/04/12 10:17:18;;;;;;;6.00;2.80;;;;;;;-150.27;100.00;61272.81;5206071;28;20018;-69
2022/04/12 10:19:50;;;;;;;5.55;2.50;;;;;;;-150.27;100.00;61272.81;5204782;28;20038;-69
2022/04/12 10:22:23;;;;;;;6.82;3.05;;;;;;;-150.27;100.00;61272.81;5209580;28;20080;-70
2022/04/12 10:24:55;;;;;;;7.13;2.33;;;;;;;-150.27;100.00;61272.81;5204480;28;20041;-69
2022/04/12 10:27:28;;;;;;;5.20;2.47;;;;;;;-150.27;100.00;61272.81;5207880;28;20117;-69
2022/04/12 10:30:14;;;;;;;6.45;2.45;;;;;;;-150.27;100.00;61272.81;5196422;28;20344;-69
2022/04/12 10:33:03;;;;;;;5.20;2.45;;;;;;;-150.27;100.00;61272.81;5203047;28;20053;-71
2022/04/12 10:35:46;;;;;;;6.40;2.40;;;;;;;-150.27;100.00;61272.81;5209045;28;20328;-70
2022/04/12 10:38:19;;;;;;;6.35;2.67;;;;;;;-150.27;100.00;61272.81;5208984;28;20104;-72
2022/04/12 10:40:52;;;;;;;5.40;2.60;;;;;;;-150.27;100.00;61272.81;5208416;28;20594;-72
2022/04/12 10:43:33;;;;;;;6.70;2.70;;;;;;;-150.27;100.00;61272.81;5207525;28;20284;-72
2022/04/12 10:46:07;;;;;;;6.45;2.33;;;;;;;-150.27;100.00;61272.81;5206538;28;20580;-69
2022/04/12 10:48:39;;;;;;;6.22;2.60;;;;;;;-150.27;100.00;61272.81;5208878;28;20030;-70
2022/04/12 10:51:11;;;;;;;11.13;2.78;;;;;;;-150.27;100.00;61272.81;5208879;28;20037;-71
2022/04/12 10:53:42;;;;;;;4.05;1.92;;;;;;;-150.27;100.00;61272.81;5206854;28;20030;-71
2022/04/12 10:56:17;;;;;;;5.75;2.30;;;;;;;-150.27;100.00;61272.81;5208153;28;20388;-70
2022/04/12 10:58:49;;;;;;;8.05;2.25;;;;;;;-150.27;100.00;61272.81;5207510;28;20021;-72
2022/04/12 11:01:29;;;;;;;10.57;3.92;;;;;;;-150.27;100.00;61272.81;5209004;28;20037;-71
2022/04/12 11:04:02;;;;;;;9.60;2.17;;;;;;;-150.27;100.00;61272.81;5195552;28;20022;-78
2022/04/12 11:06:34;;;;;;;6.60;2.30;;;;;;;-150.27;100.00;61272.81;5208549;28;20175;-72
2022/04/12 11:09:16;;;;;;;7.53;2.80;;;;;;;-150.27;100.00;61272.81;5208525;28;20109;-72
2022/04/12 11:11:52;;;;;;;8.80;2.45;;;;;;;-150.27;100.00;61272.81;5207039;28;20033;-73
2022/04/12 11:14:32;;;;;;;7.80;2.47;;;;;;;-150.27;100.00;61272.81;5210896;28;20022;-72
2022/04/12 11:17:12;;;;;;;7.68;3.72;;;;;;;-150.27;100.00;61272.81;5204551;28;20034;-73
2022/04/12 11:19:50;;;;;;;8.40;2.40;;;;;;;-150.27;100.00;61272.81;5197707;28;20032;-72
2022/04/12 11:22:23;;;;;;;5.28;2.50;;;;;;;-150.27;100.00;61272.81;5206339;28;20080;-72
2022/04/12 11:25:14;;;;;;;5.13;2.50;;;;;;;-150.27;100.00;61272.81;5207771;28;20481;-73
2022/04/12 11:27:49;;;;;;;6.90;2.42;;;;;;;-150.27;100.00;61272.81;5202275;28;20022;-73
2022/04/12 11:30:20;;;;;;;9.48;3.88;;;;;;;-150.27;100.00;61272.81;5207865;28;20026;-72
2022/04/12 11:32:55;;;;;;;8.05;3.47;;;;;;;-150.27;100.00;61272.81;5208745;28;20026;-73
2022/04/12 11:35:27;;;;;;;10.27;3.08;;;;;;;-150.27;100.00;61272.81;5205526;28;20080;-73